sensor_id;sensor_type;location;lat;lon;timestamp;pressure;altitude;pressure_sealevel;temperature
29701;BMP280;57917;51.380;-0.176;2023-04-15T00:05:34;100554.38;;;8.01
29701;BMP280;57917;51.380;-0.176;2023-04-15T00:11:28;100557.13;;;8.21
29701;BMP280;57917;51.380;-0.176;2023-04-15T00:17:23;100554.97;;;8.18
29701;BMP280;57917;51.380;-0.176;2023-04-15T00:23:46;100561.66;;;7.84
29701;BMP280;57917;51.380;-0.176;2023-04-15T00:30:01;100563.50;;;7.78
29701;BMP280;57917;51.380;-0.176;2023-04-15T00:36:14;100567.00;;;7.94
29701;BMP280;57917;51.380;-0.176;2023-04-15T00:42:21;100581.22;;;7.93
29701;BMP280;57917;51.380;-0.176;2023-04-15T00:48:36;100589.13;;;7.93
29701;BMP280;57917;51.380;-0.176;2023-04-15T01:01:49;100597.50;;;7.80
29701;BMP280;57917;51.380;-0.176;2023-04-15T01:07:42;100615.88;;;7.65
29701;BMP280;57917;51.380;-0.176;2023-04-15T01:13:29;100618.00;;;7.73
29701;BMP280;57917;51.380;-0.176;2023-04-15T01:19:17;100631.53;;;7.81
29701;BMP280;57917;51.380;-0.176;2023-04-15T01:25:19;100635.53;;;7.94
29701;BMP280;57917;51.380;-0.176;2023-04-15T01:31:11;100643.41;;;7.89
29701;BMP280;57917;51.380;-0.176;2023-04-15T01:37:00;100646.47;;;7.76
29701;BMP280;57917;51.380;-0.176;2023-04-15T01:42:50;100667.00;;;7.69
29701;BMP280;57917;51.380;-0.176;2023-04-15T01:48:58;100674.31;;;7.62
29701;BMP280;57917;51.380;-0.176;2023-04-15T01:55:15;100681.16;;;7.57
29701;BMP280;57917;51.380;-0.176;2023-04-15T02:01:36;100676.06;;;7.46
29701;BMP280;57917;51.380;-0.176;2023-04-15T02:07:24;100682.16;;;7.56
29701;BMP280;57917;51.380;-0.176;2023-04-15T02:13:12;100694.03;;;7.54
29701;BMP280;57917;51.380;-0.176;2023-04-15T02:18:59;100698.97;;;7.45
29701;BMP280;57917;51.380;-0.176;2023-04-15T02:24:48;100718.75;;;7.48
29701;BMP280;57917;51.380;-0.176;2023-04-15T02:30:46;100719.16;;;7.40
29701;BMP280;57917;51.380;-0.176;2023-04-15T02:36:47;100718.78;;;7.26
29701;BMP280;57917;51.380;-0.176;2023-04-15T02:42:57;100732.00;;;7.31
29701;BMP280;57917;51.380;-0.176;2023-04-15T02:48:48;100740.84;;;7.25
29701;BMP280;57917;51.380;-0.176;2023-04-15T02:54:35;100739.22;;;7.19
29701;BMP280;57917;51.380;-0.176;2023-04-15T03:00:34;100742.91;;;7.18
29701;BMP280;57917;51.380;-0.176;2023-04-15T03:06:25;100752.59;;;7.39
29701;BMP280;57917;51.380;-0.176;2023-04-15T03:13:16;100762.16;;;7.45
29701;BMP280;57917;51.380;-0.176;2023-04-15T03:19:06;100774.00;;;7.21
29701;BMP280;57917;51.380;-0.176;2023-04-15T03:25:10;100775.06;;;7.20
29701;BMP280;57917;51.380;-0.176;2023-04-15T03:31:13;100781.84;;;7.16
29701;BMP280;57917;51.380;-0.176;2023-04-15T03:37:07;100809.09;;;7.05
29701;BMP280;57917;51.380;-0.176;2023-04-15T03:43:11;100828.63;;;7.09
29701;BMP280;57917;51.380;-0.176;2023-04-15T03:49:13;100824.59;;;7.23
29701;BMP280;57917;51.380;-0.176;2023-04-15T03:55:18;100839.06;;;7.26
29701;BMP280;57917;51.380;-0.176;2023-04-15T04:02:14;100851.59;;;7.35
29701;BMP280;57917;51.380;-0.176;2023-04-15T04:08:10;100854.06;;;7.25
29701;BMP280;57917;51.380;-0.176;2023-04-15T04:14:06;100871.00;;;7.29
29701;BMP280;57917;51.380;-0.176;2023-04-15T04:20:36;100873.94;;;7.33
29701;BMP280;57917;51.380;-0.176;2023-04-15T04:27:08;100881.53;;;7.29
29701;BMP280;57917;51.380;-0.176;2023-04-15T04:32:54;100898.94;;;7.52
29701;BMP280;57917;51.380;-0.176;2023-04-15T04:38:41;100901.91;;;7.39
29701;BMP280;57917;51.380;-0.176;2023-04-15T04:44:28;100922.19;;;7.38
29701;BMP280;57917;51.380;-0.176;2023-04-15T04:50:15;100929.56;;;7.36
29701;BMP280;57917;51.380;-0.176;2023-04-15T04:56:05;100943.94;;;7.29
29701;BMP280;57917;51.380;-0.176;2023-04-15T05:01:52;100951.56;;;7.30
29701;BMP280;57917;51.380;-0.176;2023-04-15T05:07:43;100973.53;;;7.36
29701;BMP280;57917;51.380;-0.176;2023-04-15T05:13:33;100978.53;;;7.37
29701;BMP280;57917;51.380;-0.176;2023-04-15T05:19:21;100997.53;;;7.39
29701;BMP280;57917;51.380;-0.176;2023-04-15T05:25:10;101013.19;;;7.46
29701;BMP280;57917;51.380;-0.176;2023-04-15T05:30:57;101027.50;;;7.55
29701;BMP280;57917;51.380;-0.176;2023-04-15T05:36:45;101039.56;;;7.51
29701;BMP280;57917;51.380;-0.176;2023-04-15T05:42:34;101057.72;;;7.47
29701;BMP280;57917;51.380;-0.176;2023-04-15T05:48:26;101078.22;;;7.45
29701;BMP280;57917;51.380;-0.176;2023-04-15T05:54:15;101093.03;;;7.51
29701;BMP280;57917;51.380;-0.176;2023-04-15T06:00:06;101102.38;;;7.42
29701;BMP280;57917;51.380;-0.176;2023-04-15T06:05:59;101104.47;;;7.40
29701;BMP280;57917;51.380;-0.176;2023-04-15T06:11:54;101125.47;;;7.52
29701;BMP280;57917;51.380;-0.176;2023-04-15T06:17:44;101140.72;;;7.67
29701;BMP280;57917;51.380;-0.176;2023-04-15T06:23:33;101145.22;;;7.71
29701;BMP280;57917;51.380;-0.176;2023-04-15T06:29:22;101146.75;;;7.67
29701;BMP280;57917;51.380;-0.176;2023-04-15T06:35:09;101167.66;;;7.90
29701;BMP280;57917;51.380;-0.176;2023-04-15T06:41:06;101175.94;;;7.99
29701;BMP280;57917;51.380;-0.176;2023-04-15T06:46:53;101186.34;;;7.89
29701;BMP280;57917;51.380;-0.176;2023-04-15T06:52:39;101192.72;;;8.09
29701;BMP280;57917;51.380;-0.176;2023-04-15T06:58:28;101208.78;;;8.08
29701;BMP280;57917;51.380;-0.176;2023-04-15T07:04:14;101208.22;;;8.06
29701;BMP280;57917;51.380;-0.176;2023-04-15T07:10:01;101238.03;;;8.06
29701;BMP280;57917;51.380;-0.176;2023-04-15T07:15:49;101263.34;;;8.24
29701;BMP280;57917;51.380;-0.176;2023-04-15T07:21:36;101268.06;;;8.22
29701;BMP280;57917;51.380;-0.176;2023-04-15T07:27:25;101275.72;;;8.07
29701;BMP280;57917;51.380;-0.176;2023-04-15T07:33:13;101279.97;;;8.08
29701;BMP280;57917;51.380;-0.176;2023-04-15T07:39:02;101291.66;;;8.12
29701;BMP280;57917;51.380;-0.176;2023-04-15T07:44:53;101305.53;;;8.24
29701;BMP280;57917;51.380;-0.176;2023-04-15T07:50:39;101316.72;;;8.31
29701;BMP280;57917;51.380;-0.176;2023-04-15T07:56:26;101320.75;;;8.33
29701;BMP280;57917;51.380;-0.176;2023-04-15T08:02:14;101334.28;;;8.42
29701;BMP280;57917;51.380;-0.176;2023-04-15T08:08:02;101356.03;;;8.49
29701;BMP280;57917;51.380;-0.176;2023-04-15T08:13:51;101352.34;;;8.66
29701;BMP280;57917;51.380;-0.176;2023-04-15T08:19:51;101352.72;;;8.75
29701;BMP280;57917;51.380;-0.176;2023-04-15T08:25:42;101365.06;;;9.13
29701;BMP280;57917;51.380;-0.176;2023-04-15T08:31:29;101367.69;;;9.29
29701;BMP280;57917;51.380;-0.176;2023-04-15T08:37:16;101377.94;;;9.52
29701;BMP280;57917;51.380;-0.176;2023-04-15T08:43:06;101375.97;;;9.64
29701;BMP280;57917;51.380;-0.176;2023-04-15T08:48:56;101384.63;;;9.86
29701;BMP280;57917;51.380;-0.176;2023-04-15T08:54:43;101399.31;;;9.72
29701;BMP280;57917;51.380;-0.176;2023-04-15T09:00:32;101405.88;;;9.96
29701;BMP280;57917;51.380;-0.176;2023-04-15T09:06:20;101409.25;;;9.92
29701;BMP280;57917;51.380;-0.176;2023-04-15T09:19:33;101433.88;;;9.44
29701;BMP280;57917;51.380;-0.176;2023-04-15T09:31:07;101463.84;;;9.76
29701;BMP280;57917;51.380;-0.176;2023-04-15T09:37:09;101491.88;;;9.77
29701;BMP280;57917;51.380;-0.176;2023-04-15T09:43:21;101497.72;;;9.79
29701;BMP280;57917;51.380;-0.176;2023-04-15T09:49:08;101511.97;;;10.00
29701;BMP280;57917;51.380;-0.176;2023-04-15T09:54:57;101521.34;;;10.13
29701;BMP280;57917;51.380;-0.176;2023-04-15T10:00:46;101538.41;;;10.22
29701;BMP280;57917;51.380;-0.176;2023-04-15T10:06:34;101536.75;;;10.16
29701;BMP280;57917;51.380;-0.176;2023-04-15T10:12:22;101545.41;;;10.11
29701;BMP280;57917;51.380;-0.176;2023-04-15T10:18:10;101558.00;;;10.52
29701;BMP280;57917;51.380;-0.176;2023-04-15T10:24:02;101565.00;;;10.95
29701;BMP280;57917;51.380;-0.176;2023-04-15T10:29:50;101570.88;;;11.07
29701;BMP280;57917;51.380;-0.176;2023-04-15T10:35:37;101569.44;;;10.89
29701;BMP280;57917;51.380;-0.176;2023-04-15T10:41:26;101574.06;;;11.04
29701;BMP280;57917;51.380;-0.176;2023-04-15T10:47:17;101589.22;;;10.82
29701;BMP280;57917;51.380;-0.176;2023-04-15T10:53:09;101599.00;;;11.08
29701;BMP280;57917;51.380;-0.176;2023-04-15T10:58:58;101597.97;;;11.14
29701;BMP280;57917;51.380;-0.176;2023-04-15T11:04:56;101615.16;;;10.75
29701;BMP280;57917;51.380;-0.176;2023-04-15T11:16:41;101633.09;;;11.31
29701;BMP280;57917;51.380;-0.176;2023-04-15T11:22:28;101613.22;;;11.85
29701;BMP280;57917;51.380;-0.176;2023-04-15T11:28:15;101614.38;;;12.29
29701;BMP280;57917;51.380;-0.176;2023-04-15T11:34:04;101622.94;;;12.66
29701;BMP280;57917;51.380;-0.176;2023-04-15T11:39:52;101625.78;;;13.35
29701;BMP280;57917;51.380;-0.176;2023-04-15T11:45:58;101632.22;;;12.49
29701;BMP280;57917;51.380;-0.176;2023-04-15T11:51:49;101650.59;;;13.06
29701;BMP280;57917;51.380;-0.176;2023-04-15T11:57:36;101645.00;;;13.07
29701;BMP280;57917;51.380;-0.176;2023-04-15T12:03:26;101639.88;;;13.41
29701;BMP280;57917;51.380;-0.176;2023-04-15T12:09:15;101653.50;;;13.09
29701;BMP280;57917;51.380;-0.176;2023-04-15T12:15:02;101650.47;;;13.56
29701;BMP280;57917;51.380;-0.176;2023-04-15T12:20:49;101654.84;;;13.90
29701;BMP280;57917;51.380;-0.176;2023-04-15T12:26:43;101657.28;;;14.35
29701;BMP280;57917;51.380;-0.176;2023-04-15T12:32:34;101669.16;;;14.53
29701;BMP280;57917;51.380;-0.176;2023-04-15T12:38:21;101679.00;;;14.86
29701;BMP280;57917;51.380;-0.176;2023-04-15T12:44:10;101670.38;;;14.27
29701;BMP280;57917;51.380;-0.176;2023-04-15T12:49:57;101671.69;;;14.68
29701;BMP280;57917;51.380;-0.176;2023-04-15T12:55:44;101676.75;;;14.70
29701;BMP280;57917;51.380;-0.176;2023-04-15T13:01:34;101692.47;;;15.28
29701;BMP280;57917;51.380;-0.176;2023-04-15T13:07:27;101680.34;;;15.17
29701;BMP280;57917;51.380;-0.176;2023-04-15T13:13:16;101689.31;;;15.50
29701;BMP280;57917;51.380;-0.176;2023-04-15T13:19:05;101696.06;;;15.42
29701;BMP280;57917;51.380;-0.176;2023-04-15T13:24:52;101695.34;;;15.60
29701;BMP280;57917;51.380;-0.176;2023-04-15T13:30:39;101705.28;;;15.97
29701;BMP280;57917;51.380;-0.176;2023-04-15T13:36:28;101705.03;;;14.99
29701;BMP280;57917;51.380;-0.176;2023-04-15T13:42:17;101723.28;;;15.44
29701;BMP280;57917;51.380;-0.176;2023-04-15T13:48:04;101720.19;;;15.56
29701;BMP280;57917;51.380;-0.176;2023-04-15T13:53:51;101729.66;;;15.20
29701;BMP280;57917;51.380;-0.176;2023-04-15T13:59:38;101728.78;;;15.01
29701;BMP280;57917;51.380;-0.176;2023-04-15T14:05:29;101723.09;;;15.07
29701;BMP280;57917;51.380;-0.176;2023-04-15T14:11:17;101729.66;;;15.72
29701;BMP280;57917;51.380;-0.176;2023-04-15T14:17:04;101733.88;;;15.49
29701;BMP280;57917;51.380;-0.176;2023-04-15T14:22:51;101734.06;;;15.58
29701;BMP280;57917;51.380;-0.176;2023-04-15T14:28:38;101745.97;;;15.13
29701;BMP280;57917;51.380;-0.176;2023-04-15T14:34:25;101758.25;;;14.27
29701;BMP280;57917;51.380;-0.176;2023-04-15T14:40:13;101756.28;;;13.84
29701;BMP280;57917;51.380;-0.176;2023-04-15T14:46:03;101768.53;;;13.90
29701;BMP280;57917;51.380;-0.176;2023-04-15T14:51:57;101770.72;;;14.47
29701;BMP280;57917;51.380;-0.176;2023-04-15T14:57:45;101772.41;;;15.10
29701;BMP280;57917;51.380;-0.176;2023-04-15T15:03:33;101769.25;;;14.69
29701;BMP280;57917;51.380;-0.176;2023-04-15T15:09:21;101774.50;;;15.13
29701;BMP280;57917;51.380;-0.176;2023-04-15T15:15:09;101761.28;;;15.60
29701;BMP280;57917;51.380;-0.176;2023-04-15T15:21:13;101767.06;;;15.67
29701;BMP280;57917;51.380;-0.176;2023-04-15T15:27:01;101769.16;;;16.35
29701;BMP280;57917;51.380;-0.176;2023-04-15T15:32:48;101778.78;;;15.71
29701;BMP280;57917;51.380;-0.176;2023-04-15T15:38:36;101781.81;;;15.31
29701;BMP280;57917;51.380;-0.176;2023-04-15T15:44:53;101784.97;;;15.09
29701;BMP280;57917;51.380;-0.176;2023-04-15T15:50:56;101778.28;;;14.68
29701;BMP280;57917;51.380;-0.176;2023-04-15T15:56:43;101786.94;;;14.50
29701;BMP280;57917;51.380;-0.176;2023-04-15T16:02:31;101802.78;;;14.80
29701;BMP280;57917;51.380;-0.176;2023-04-15T16:08:38;101806.16;;;14.91
29701;BMP280;57917;51.380;-0.176;2023-04-15T16:14:25;101804.34;;;15.20
29701;BMP280;57917;51.380;-0.176;2023-04-15T16:20:15;101817.88;;;15.57
29701;BMP280;57917;51.380;-0.176;2023-04-15T16:26:02;101821.41;;;15.52
29701;BMP280;57917;51.380;-0.176;2023-04-15T16:31:49;101825.50;;;15.40
29701;BMP280;57917;51.380;-0.176;2023-04-15T16:37:40;101826.63;;;15.05
29701;BMP280;57917;51.380;-0.176;2023-04-15T16:43:32;101834.19;;;14.88
29701;BMP280;57917;51.380;-0.176;2023-04-15T16:49:19;101850.75;;;14.80
29701;BMP280;57917;51.380;-0.176;2023-04-15T17:01:05;101868.69;;;14.65
29701;BMP280;57917;51.380;-0.176;2023-04-15T17:06:52;101892.09;;;14.73
29701;BMP280;57917;51.380;-0.176;2023-04-15T17:12:39;101887.56;;;14.68
29701;BMP280;57917;51.380;-0.176;2023-04-15T17:18:27;101895.69;;;14.38
29701;BMP280;57917;51.380;-0.176;2023-04-15T17:24:16;101891.88;;;14.64
29701;BMP280;57917;51.380;-0.176;2023-04-15T17:30:05;101907.41;;;14.47
29701;BMP280;57917;51.380;-0.176;2023-04-15T17:35:52;101923.13;;;14.38
29701;BMP280;57917;51.380;-0.176;2023-04-15T17:41:39;101924.72;;;14.44
29701;BMP280;57917;51.380;-0.176;2023-04-15T17:47:26;101939.41;;;14.32
29701;BMP280;57917;51.380;-0.176;2023-04-15T17:53:13;101949.00;;;14.28
29701;BMP280;57917;51.380;-0.176;2023-04-15T17:59:00;101961.53;;;14.02
29701;BMP280;57917;51.380;-0.176;2023-04-15T18:04:48;101958.88;;;13.87
29701;BMP280;57917;51.380;-0.176;2023-04-15T18:10:40;101972.44;;;13.71
29701;BMP280;57917;51.380;-0.176;2023-04-15T18:16:27;102003.25;;;13.47
29701;BMP280;57917;51.380;-0.176;2023-04-15T18:22:16;102001.63;;;13.31
29701;BMP280;57917;51.380;-0.176;2023-04-15T18:28:06;101998.03;;;13.10
29701;BMP280;57917;51.380;-0.176;2023-04-15T18:33:55;101992.97;;;12.99
29701;BMP280;57917;51.380;-0.176;2023-04-15T18:39:46;102006.38;;;12.77
29701;BMP280;57917;51.380;-0.176;2023-04-15T18:45:38;102015.25;;;12.93
29701;BMP280;57917;51.380;-0.176;2023-04-15T18:59:55;102036.38;;;12.67
29701;BMP280;57917;51.380;-0.176;2023-04-15T19:05:41;102037.59;;;12.97
29701;BMP280;57917;51.380;-0.176;2023-04-15T19:11:28;102048.19;;;12.87
29701;BMP280;57917;51.380;-0.176;2023-04-15T19:17:15;102048.59;;;13.15
29701;BMP280;57917;51.380;-0.176;2023-04-15T19:23:02;102050.28;;;13.31
29701;BMP280;57917;51.380;-0.176;2023-04-15T19:28:48;102053.50;;;13.38
29701;BMP280;57917;51.380;-0.176;2023-04-15T19:34:35;102057.72;;;13.29
29701;BMP280;57917;51.380;-0.176;2023-04-15T19:40:21;102052.88;;;13.21
29701;BMP280;57917;51.380;-0.176;2023-04-15T19:46:08;102054.25;;;13.24
29701;BMP280;57917;51.380;-0.176;2023-04-15T19:51:55;102078.16;;;13.19
29701;BMP280;57917;51.380;-0.176;2023-04-15T19:57:41;102087.19;;;13.23
29701;BMP280;57917;51.380;-0.176;2023-04-15T20:03:28;102092.47;;;13.13
29701;BMP280;57917;51.380;-0.176;2023-04-15T20:09:22;102101.47;;;13.07
29701;BMP280;57917;51.380;-0.176;2023-04-15T20:16:31;102128.13;;;13.17
29701;BMP280;57917;51.380;-0.176;2023-04-15T20:22:21;102121.50;;;13.19
29701;BMP280;57917;51.380;-0.176;2023-04-15T20:28:21;102141.41;;;13.12
29701;BMP280;57917;51.380;-0.176;2023-04-15T20:35:01;102131.28;;;12.77
29701;BMP280;57917;51.380;-0.176;2023-04-15T20:40:52;102143.13;;;12.59
29701;BMP280;57917;51.380;-0.176;2023-04-15T20:46:42;102149.41;;;12.80
29701;BMP280;57917;51.380;-0.176;2023-04-15T21:00:52;102156.97;;;12.61
29701;BMP280;57917;51.380;-0.176;2023-04-15T21:06:41;102162.75;;;12.58
29701;BMP280;57917;51.380;-0.176;2023-04-15T21:12:28;102170.50;;;12.60
29701;BMP280;57917;51.380;-0.176;2023-04-15T21:18:15;102161.19;;;12.62
29701;BMP280;57917;51.380;-0.176;2023-04-15T21:24:06;102161.34;;;12.51
29701;BMP280;57917;51.380;-0.176;2023-04-15T21:30:04;102169.63;;;12.54
29701;BMP280;57917;51.380;-0.176;2023-04-15T21:42:55;102185.91;;;12.15
29701;BMP280;57917;51.380;-0.176;2023-04-15T21:48:44;102172.78;;;12.03
29701;BMP280;57917;51.380;-0.176;2023-04-15T21:54:32;102183.03;;;11.95
29701;BMP280;57917;51.380;-0.176;2023-04-15T22:00:24;102180.56;;;11.88
29701;BMP280;57917;51.380;-0.176;2023-04-15T22:21:27;102216.53;;;11.63
29701;BMP280;57917;51.380;-0.176;2023-04-15T22:27:20;102222.34;;;11.43
29701;BMP280;57917;51.380;-0.176;2023-04-15T22:33:16;102226.84;;;11.43
29701;BMP280;57917;51.380;-0.176;2023-04-15T22:39:39;102227.16;;;11.46
29701;BMP280;57917;51.380;-0.176;2023-04-15T22:53:00;102228.22;;;11.45
29701;BMP280;57917;51.380;-0.176;2023-04-15T22:59:11;102238.13;;;11.33
29701;BMP280;57917;51.380;-0.176;2023-04-15T23:04:57;102232.16;;;11.26
29701;BMP280;57917;51.380;-0.176;2023-04-15T23:10:47;102240.00;;;11.21
29701;BMP280;57917;51.380;-0.176;2023-04-15T23:16:38;102244.03;;;11.23
29701;BMP280;57917;51.380;-0.176;2023-04-15T23:22:25;102244.53;;;11.04
29701;BMP280;57917;51.380;-0.176;2023-04-15T23:28:20;102252.53;;;11.09
29701;BMP280;57917;51.380;-0.176;2023-04-15T23:34:15;102249.16;;;10.97
29701;BMP280;57917;51.380;-0.176;2023-04-15T23:40:03;102249.78;;;10.87
29701;BMP280;57917;51.380;-0.176;2023-04-15T23:45:55;102241.16;;;10.80
29701;BMP280;57917;51.380;-0.176;2023-04-15T23:51:47;102251.50;;;10.82
29701;BMP280;57917;51.380;-0.176;2023-04-15T23:57:48;102258.69;;;10.70
